createdAt,value
2018-07-19T00:01:16.849Z,99.90
2018-07-19T00:08:41.326Z,99.90
2018-07-19T00:11:09.585Z,99.90
2018-07-19T00:13:37.848Z,99.90
2018-07-19T00:16:06.130Z,99.90
2018-07-19T00:18:34.406Z,99.90
2018-07-19T00:21:02.664Z,99.90
2018-07-19T00:23:30.964Z,99.90
2018-07-19T00:25:59.236Z,99.90
2018-07-19T00:28:27.539Z,99.90
2018-07-19T00:30:55.952Z,99.90
2018-07-19T00:33:24.233Z,99.90
2018-07-19T00:35:52.645Z,99.90
2018-07-19T00:38:20.946Z,99.90
2018-07-19T00:40:49.328Z,99.90
2018-07-19T00:43:17.630Z,99.90
2018-07-19T00:45:45.989Z,99.90
2018-07-19T00:50:42.381Z,99.90
2018-07-19T00:53:10.770Z,99.90
2018-07-19T00:55:39.409Z,99.90
2018-07-19T00:58:07.658Z,99.90
2018-07-19T01:00:35.913Z,99.90
2018-07-19T01:03:04.153Z,99.90
2018-07-19T01:05:32.523Z,99.90
2018-07-19T01:08:00.938Z,99.90
2018-07-19T01:10:29.525Z,99.90
2018-07-19T01:12:57.789Z,99.90
2018-07-19T01:15:26.070Z,99.90
2018-07-19T01:17:54.384Z,99.90
2018-07-19T01:20:22.775Z,99.90
2018-07-19T01:22:51.057Z,99.90
2018-07-19T01:25:19.429Z,99.90
2018-07-19T01:27:48.085Z,99.90
2018-07-19T01:30:16.413Z,99.90
2018-07-19T01:32:44.723Z,99.90
2018-07-19T01:35:13.018Z,99.90
2018-07-19T01:37:41.268Z,99.90
2018-07-19T01:40:09.538Z,99.90
2018-07-19T01:45:10.554Z,99.90
2018-07-19T01:47:39.137Z,99.90
2018-07-19T01:52:35.991Z,99.90
2018-07-19T01:55:04.896Z,99.90
2018-07-19T01:57:33.164Z,99.90
2018-07-19T02:00:01.494Z,99.90
2018-07-19T02:02:29.771Z,99.90
2018-07-19T02:04:58.105Z,99.90
2018-07-19T02:07:26.404Z,99.90
2018-07-19T02:09:54.729Z,99.90
2018-07-19T02:12:23.041Z,99.90
2018-07-19T02:14:51.269Z,99.90
2018-07-19T02:17:19.582Z,99.90
2018-07-19T02:19:47.936Z,99.90
2018-07-19T02:24:44.357Z,99.90
2018-07-19T02:27:12.701Z,99.90
2018-07-19T02:32:09.013Z,99.90
2018-07-19T02:34:37.317Z,99.90
2018-07-19T02:37:05.643Z,99.90
2018-07-19T02:39:33.877Z,99.90
2018-07-19T02:42:02.193Z,99.90
2018-07-19T02:44:30.554Z,99.90
2018-07-19T02:46:58.806Z,99.90
2018-07-19T02:49:27.413Z,99.90
2018-07-19T02:51:55.791Z,99.90
2018-07-19T02:54:24.065Z,99.90
2018-07-19T02:56:52.365Z,99.90
2018-07-19T02:59:20.706Z,99.90
2018-07-19T03:06:45.299Z,99.90
2018-07-19T03:09:13.546Z,99.90
2018-07-19T03:11:41.889Z,99.90
2018-07-19T03:16:38.158Z,99.90
2018-07-19T03:19:06.530Z,99.90
2018-07-19T03:21:34.813Z,99.90
2018-07-19T03:24:03.077Z,99.90
2018-07-19T03:26:31.403Z,99.90
2018-07-19T03:28:59.698Z,99.90
2018-07-19T03:31:28.069Z,99.90
2018-07-19T03:33:56.397Z,99.90
2018-07-19T03:38:52.989Z,99.90
2018-07-19T03:41:21.391Z,99.90
2018-07-19T03:43:49.630Z,99.90
2018-07-19T03:46:17.985Z,99.90
2018-07-19T03:48:46.261Z,99.90
2018-07-19T03:51:14.540Z,99.90
2018-07-19T03:53:42.842Z,99.90
2018-07-19T03:58:39.166Z,99.90
2018-07-19T04:01:07.541Z,99.90
2018-07-19T04:03:35.815Z,99.90
2018-07-19T04:06:04.045Z,99.90
2018-07-19T04:08:32.270Z,99.90
2018-07-19T04:11:00.825Z,99.90
2018-07-19T04:13:29.110Z,99.90
2018-07-19T04:15:57.361Z,99.90
2018-07-19T04:18:25.622Z,99.90
2018-07-19T04:20:53.849Z,99.90
2018-07-19T04:23:22.090Z,99.90
2018-07-19T04:25:50.326Z,99.90
2018-07-19T04:28:18.657Z,99.90
2018-07-19T04:33:14.967Z,99.90
2018-07-19T04:35:43.349Z,99.90
2018-07-19T04:38:11.587Z,99.90
2018-07-19T04:40:39.861Z,99.90
2018-07-19T04:43:08.149Z,99.90
2018-07-19T04:45:36.733Z,99.90
2018-07-19T04:48:05.112Z,99.90
2018-07-19T04:50:33.380Z,99.90
2018-07-19T04:53:01.668Z,99.90
2018-07-19T04:55:30.049Z,99.90
2018-07-19T05:00:26.344Z,99.90
2018-07-19T05:02:54.612Z,99.90
2018-07-19T05:05:22.970Z,99.90
2018-07-19T05:07:52.130Z,99.90
2018-07-19T05:10:20.361Z,99.90
2018-07-19T05:12:48.629Z,99.90
2018-07-19T05:15:16.873Z,99.90
2018-07-19T05:17:45.111Z,99.90
2018-07-19T05:20:13.427Z,99.90
2018-07-19T05:22:41.685Z,99.90
2018-07-19T05:25:09.946Z,99.90
2018-07-19T05:27:38.191Z,99.90
2018-07-19T05:30:06.537Z,99.90
2018-07-19T05:32:34.865Z,99.90
2018-07-19T05:35:03.164Z,99.90
2018-07-19T05:37:31.461Z,99.90
2018-07-19T05:39:59.725Z,99.90
2018-07-19T05:42:28.111Z,99.90
2018-07-19T05:45:01.118Z,99.90
2018-07-19T05:47:29.385Z,99.90
2018-07-19T05:49:57.787Z,99.90
2018-07-19T05:52:26.125Z,99.90
2018-07-19T05:54:54.349Z,99.90
2018-07-19T05:57:22.649Z,99.90
2018-07-19T05:59:50.909Z,99.90
2018-07-19T06:02:19.137Z,99.90
2018-07-19T06:04:47.443Z,99.90
2018-07-19T06:07:15.729Z,99.90
2018-07-19T06:09:44.134Z,99.90
2018-07-19T06:12:12.426Z,99.90
2018-07-19T06:14:40.703Z,99.90
2018-07-19T06:17:09.058Z,99.90
2018-07-19T06:19:37.277Z,99.90
2018-07-19T06:22:05.886Z,99.90
2018-07-19T06:24:34.161Z,99.90
2018-07-19T06:27:02.439Z,99.90
2018-07-19T06:29:30.711Z,99.90
2018-07-19T06:31:58.982Z,99.90
2018-07-19T06:34:27.337Z,99.90
2018-07-19T06:36:55.721Z,99.90
2018-07-19T06:39:24.789Z,99.90
2018-07-19T06:41:53.047Z,99.90
2018-07-19T06:44:21.365Z,99.90
2018-07-19T06:46:49.666Z,99.90
2018-07-19T06:49:18.010Z,99.90
2018-07-19T06:51:46.344Z,99.90
2018-07-19T06:54:14.735Z,99.90
2018-07-19T06:56:43.029Z,99.90
2018-07-19T06:59:11.344Z,99.90
2018-07-19T07:01:39.764Z,99.90
2018-07-19T07:04:08.073Z,99.90
2018-07-19T07:06:36.449Z,99.90
2018-07-19T07:09:07.526Z,99.90
2018-07-19T07:11:36.807Z,99.90
2018-07-19T07:14:05.104Z,99.90
2018-07-19T07:19:01.671Z,99.90
2018-07-19T07:21:29.998Z,99.90
2018-07-19T07:23:58.443Z,99.90
2018-07-19T07:26:26.698Z,99.90
2018-07-19T07:28:54.966Z,99.90
2018-07-19T07:31:23.355Z,99.90
2018-07-19T07:36:19.807Z,99.90
2018-07-19T07:38:48.178Z,99.90
2018-07-19T07:41:16.522Z,99.90
2018-07-19T07:43:44.769Z,99.90
2018-07-19T07:46:13.005Z,99.90
2018-07-19T07:48:41.278Z,99.90
2018-07-19T07:51:09.834Z,99.90
2018-07-19T07:53:38.150Z,99.90
2018-07-19T07:56:06.437Z,99.90
2018-07-19T07:58:35.063Z,99.90
2018-07-19T08:01:03.333Z,99.90
2018-07-19T08:03:31.561Z,99.90
2018-07-19T08:05:59.841Z,99.90
2018-07-19T08:08:28.169Z,99.90
2018-07-19T08:10:56.446Z,99.90
2018-07-19T08:13:24.700Z,99.90
2018-07-19T08:15:52.977Z,99.90
2018-07-19T08:18:21.213Z,99.90
2018-07-19T08:20:49.450Z,99.90
2018-07-19T08:23:17.676Z,99.90
2018-07-19T08:25:45.921Z,99.90
2018-07-19T08:28:14.306Z,99.90
2018-07-19T08:30:42.581Z,99.90
2018-07-19T08:33:10.881Z,99.90
2018-07-19T08:35:39.187Z,99.90
2018-07-19T08:38:07.578Z,99.90
2018-07-19T08:40:36.010Z,99.90
2018-07-19T08:43:04.349Z,99.90
2018-07-19T08:45:32.705Z,99.90
2018-07-19T08:48:01.025Z,99.90
2018-07-19T08:50:29.335Z,99.90
2018-07-19T08:52:57.583Z,99.90
2018-07-19T08:55:26.333Z,99.90
2018-07-19T08:57:54.742Z,99.90
2018-07-19T09:00:23.051Z,99.90
2018-07-19T09:02:51.376Z,99.90
2018-07-19T09:05:19.650Z,99.90
2018-07-19T09:07:47.957Z,99.90
2018-07-19T09:10:16.736Z,99.90
2018-07-19T09:12:45.077Z,99.90
2018-07-19T09:15:13.630Z,99.90
2018-07-19T09:17:41.877Z,99.90
2018-07-19T09:20:10.139Z,99.90
2018-07-19T09:22:38.529Z,99.90
2018-07-19T09:25:06.875Z,99.90
2018-07-19T09:27:35.197Z,99.90
2018-07-19T09:30:03.841Z,99.90
2018-07-19T09:32:32.220Z,99.90
2018-07-19T09:35:00.434Z,99.90
2018-07-19T09:37:28.679Z,99.90
2018-07-19T09:39:56.938Z,99.90
2018-07-19T09:42:25.338Z,99.90
2018-07-19T09:44:53.600Z,99.90
2018-07-19T09:47:22.195Z,99.90
2018-07-19T09:49:50.501Z,99.90
2018-07-19T09:52:18.805Z,99.90
2018-07-19T09:54:57.227Z,99.90
2018-07-19T09:57:26.259Z,99.90
2018-07-19T09:59:54.548Z,99.90
2018-07-19T10:02:22.917Z,99.90
2018-07-19T10:04:51.165Z,99.90
2018-07-19T10:07:19.798Z,99.90
2018-07-19T10:09:48.109Z,99.90
2018-07-19T10:12:16.402Z,99.90
2018-07-19T10:14:44.733Z,99.90
2018-07-19T10:17:13.085Z,99.90
2018-07-19T10:19:41.392Z,99.90
2018-07-19T10:22:09.781Z,99.90
2018-07-19T10:24:39.003Z,99.90
2018-07-19T10:27:07.257Z,99.90
2018-07-19T10:29:35.637Z,99.90
2018-07-19T10:32:03.930Z,99.90
2018-07-19T10:34:32.142Z,99.90
2018-07-19T10:37:00.462Z,99.90
2018-07-19T10:39:28.801Z,99.90
2018-07-19T10:41:57.142Z,99.90
2018-07-19T10:44:25.625Z,99.90
2018-07-19T10:46:54.934Z,99.90
2018-07-19T10:49:23.232Z,99.90
2018-07-19T10:51:51.596Z,99.90
2018-07-19T10:54:19.893Z,99.90
2018-07-19T10:56:48.243Z,99.90
2018-07-19T10:59:16.685Z,99.90
2018-07-19T11:01:45.067Z,99.90
2018-07-19T11:04:13.338Z,99.90
2018-07-19T11:06:41.633Z,99.90
2018-07-19T11:09:10.399Z,99.90
2018-07-19T11:11:38.835Z,99.90
2018-07-19T11:14:07.132Z,99.90
2018-07-19T11:16:35.655Z,99.90
2018-07-19T11:19:04.013Z,99.90
2018-07-19T11:21:32.251Z,99.90
2018-07-19T11:24:00.550Z,99.90
2018-07-19T11:26:29.042Z,99.90
2018-07-19T11:28:57.444Z,99.90
2018-07-19T11:31:25.821Z,99.90
2018-07-19T11:33:54.102Z,99.90
2018-07-19T11:36:22.429Z,99.90
2018-07-19T11:38:50.762Z,99.90
2018-07-19T11:41:19.025Z,99.90
2018-07-19T11:43:47.301Z,99.90
2018-07-19T11:46:15.605Z,99.90
2018-07-19T11:48:43.861Z,99.90
2018-07-19T11:51:12.137Z,99.90
2018-07-19T11:53:40.443Z,99.90
2018-07-19T11:56:08.763Z,99.90
2018-07-19T11:58:37.170Z,99.90
2018-07-19T12:01:05.445Z,99.90
2018-07-19T12:03:33.845Z,99.90
2018-07-19T12:06:02.094Z,99.90
2018-07-19T12:08:30.403Z,99.90
2018-07-19T12:10:58.733Z,99.90
2018-07-19T12:13:27.099Z,99.90
2018-07-19T12:15:55.384Z,99.90
2018-07-19T12:18:23.785Z,99.90
2018-07-19T12:20:52.063Z,99.90
2018-07-19T12:23:20.822Z,99.90
2018-07-19T12:25:49.068Z,99.90
2018-07-19T12:28:17.430Z,99.90
2018-07-19T12:30:45.682Z,99.90
2018-07-19T12:33:13.969Z,99.90
2018-07-19T12:35:42.416Z,99.90
2018-07-19T12:38:10.728Z,99.90
2018-07-19T12:40:39.061Z,99.90
2018-07-19T12:43:07.337Z,99.90
2018-07-19T12:45:35.814Z,99.90
2018-07-19T12:48:04.134Z,99.90
2018-07-19T12:50:32.446Z,99.90
2018-07-19T12:53:00.732Z,99.90
2018-07-19T12:55:28.975Z,99.90
2018-07-19T12:57:57.321Z,99.90
2018-07-19T13:00:25.719Z,99.90
2018-07-19T13:02:54.011Z,99.90
2018-07-19T13:05:22.678Z,99.90
2018-07-19T13:07:50.903Z,99.90
2018-07-19T13:10:19.144Z,99.90
2018-07-19T13:12:47.546Z,99.80
2018-07-19T13:15:16.003Z,99.90
2018-07-19T13:17:44.318Z,99.90
2018-07-19T13:20:12.554Z,99.90
2018-07-19T13:22:41.046Z,99.90
2018-07-19T13:25:09.345Z,99.40
2018-07-19T13:27:37.557Z,99.90
2018-07-19T13:30:06.013Z,99.90
2018-07-19T13:32:34.381Z,99.20
2018-07-19T13:35:02.719Z,99.50
2018-07-19T13:37:31.095Z,99.50
2018-07-19T13:39:59.365Z,99.30
2018-07-19T13:42:27.801Z,99.80
2018-07-19T13:44:56.091Z,99.30
2018-07-19T13:47:24.310Z,99.10
2018-07-19T13:49:52.689Z,98.90
2018-07-19T13:52:31.009Z,98.90
2018-07-19T13:54:59.335Z,98.90
2018-07-19T13:57:27.588Z,98.90
2018-07-19T13:59:55.907Z,99.00
2018-07-19T14:02:24.199Z,99.20
2018-07-19T14:04:52.561Z,99.90
2018-07-19T14:07:20.853Z,99.90
2018-07-19T14:09:49.161Z,99.90
2018-07-19T14:12:17.405Z,99.90
2018-07-19T14:14:45.661Z,99.20
2018-07-19T14:17:13.977Z,99.00
2018-07-19T14:19:42.252Z,98.50
2018-07-19T14:22:10.614Z,99.20
2018-07-19T14:24:38.925Z,99.90
2018-07-19T14:27:07.229Z,98.10
2018-07-19T14:29:35.642Z,99.20
2018-07-19T14:32:04.033Z,99.50
2018-07-19T14:34:32.273Z,99.80
2018-07-19T14:37:00.530Z,98.90
2018-07-19T14:39:28.774Z,99.20
2018-07-19T14:41:57.263Z,99.30
2018-07-19T14:44:25.530Z,99.40
2018-07-19T14:46:53.823Z,99.90
2018-07-19T14:49:22.291Z,99.20
2018-07-19T14:51:50.562Z,99.90
2018-07-19T14:54:18.829Z,99.90
2018-07-19T14:56:47.109Z,99.90
2018-07-19T14:59:15.495Z,99.90
2018-07-19T15:01:43.769Z,99.90
2018-07-19T15:04:12.116Z,99.90
2018-07-19T15:06:40.423Z,99.90
2018-07-19T15:09:10.552Z,99.90
2018-07-19T15:11:39.019Z,99.90
2018-07-19T15:14:07.364Z,99.90
2018-07-19T15:16:35.825Z,99.90
2018-07-19T15:19:04.110Z,99.90
2018-07-19T15:21:32.508Z,99.90
2018-07-19T15:24:00.861Z,99.90
2018-07-19T15:26:29.361Z,99.90
2018-07-19T15:28:57.685Z,99.90
2018-07-19T15:31:25.945Z,99.90
2018-07-19T15:33:54.227Z,99.90
2018-07-19T15:36:22.457Z,99.90
2018-07-19T15:38:50.702Z,99.90
2018-07-19T15:41:18.994Z,99.90
2018-07-19T15:43:47.221Z,99.90
2018-07-19T15:46:15.519Z,99.90
2018-07-19T15:48:43.809Z,99.90
2018-07-19T15:51:12.153Z,99.90
2018-07-19T15:53:40.486Z,99.90
2018-07-19T15:56:08.728Z,99.90
2018-07-19T15:58:37.054Z,99.90
2018-07-19T16:01:05.377Z,99.90
2018-07-19T16:03:33.725Z,99.90
2018-07-19T16:06:02.030Z,99.90
2018-07-19T16:10:58.382Z,99.90
2018-07-19T16:13:26.657Z,99.90
2018-07-19T16:15:55.050Z,99.90
2018-07-19T16:18:23.309Z,99.90
2018-07-19T16:23:19.714Z,99.90
2018-07-19T16:25:48.084Z,99.90
2018-07-19T16:28:16.296Z,99.90
2018-07-19T16:30:44.937Z,99.90
2018-07-19T16:33:13.201Z,99.90
2018-07-19T16:35:41.444Z,99.90
2018-07-19T16:38:09.800Z,99.90
2018-07-19T16:40:38.253Z,99.90
2018-07-19T16:45:34.573Z,99.90
2018-07-19T16:48:02.850Z,99.90
2018-07-19T16:50:31.187Z,99.90
2018-07-19T16:53:00.094Z,99.90
2018-07-19T16:55:28.451Z,99.90
2018-07-19T16:57:56.753Z,99.90
2018-07-19T17:00:25.128Z,99.90
2018-07-19T17:02:53.613Z,99.90
2018-07-19T17:05:21.946Z,99.90
2018-07-19T17:07:50.162Z,99.90
2018-07-19T17:10:18.458Z,99.90
2018-07-19T17:12:46.777Z,99.90
2018-07-19T17:15:15.138Z,99.90
2018-07-19T17:17:43.472Z,99.90
2018-07-19T17:20:11.773Z,99.90
2018-07-19T17:22:40.186Z,99.90
2018-07-19T17:27:36.505Z,99.90
2018-07-19T17:32:33.529Z,99.90
2018-07-19T17:35:01.828Z,99.90
2018-07-19T17:37:30.258Z,99.90
2018-07-19T17:39:58.648Z,99.90
2018-07-19T17:44:55.086Z,99.90
2018-07-19T17:47:23.411Z,99.90
2018-07-19T17:49:51.842Z,99.90
2018-07-19T17:52:20.417Z,99.90
2018-07-19T17:54:48.657Z,99.90
2018-07-19T17:57:16.945Z,99.90
2018-07-19T18:02:13.208Z,99.90
2018-07-19T18:04:41.451Z,99.90
2018-07-19T18:07:10.766Z,99.90
2018-07-19T18:09:39.045Z,99.90
2018-07-19T18:12:07.538Z,99.90
2018-07-19T18:17:03.902Z,99.90
2018-07-19T18:19:32.332Z,99.90
2018-07-19T18:22:00.590Z,99.90
2018-07-19T18:29:25.133Z,99.90
2018-07-19T18:31:53.433Z,99.90
2018-07-19T18:34:21.846Z,99.90
2018-07-19T18:36:50.252Z,99.90
2018-07-19T18:39:18.602Z,99.90
2018-07-19T18:44:14.910Z,99.90
2018-07-19T18:46:43.188Z,99.90
2018-07-19T18:49:11.489Z,99.90
2018-07-19T18:51:39.802Z,99.90
2018-07-19T18:54:08.051Z,99.90
2018-07-19T18:59:04.402Z,99.90
2018-07-19T19:01:32.686Z,99.90
2018-07-19T19:04:01.018Z,99.90
2018-07-19T19:06:29.338Z,99.90
2018-07-19T19:08:58.053Z,99.90
2018-07-19T19:11:26.426Z,99.90
2018-07-19T19:13:54.762Z,99.90
2018-07-19T19:16:23.002Z,99.90
2018-07-19T19:23:47.477Z,99.90
2018-07-19T19:26:15.798Z,99.90
2018-07-19T19:31:12.219Z,99.90
2018-07-19T19:33:40.542Z,99.90
2018-07-19T19:38:36.841Z,99.90
2018-07-19T19:41:05.181Z,99.90
2018-07-19T19:43:33.810Z,99.90
2018-07-19T19:46:02.129Z,99.90
2018-07-19T19:48:34.918Z,99.90
2018-07-19T19:51:03.954Z,99.90
2018-07-19T19:53:32.276Z,99.90
2018-07-19T19:56:00.562Z,99.90
2018-07-19T19:58:28.869Z,99.90
2018-07-19T20:03:25.238Z,99.90
2018-07-19T20:05:53.546Z,99.90
2018-07-19T20:10:49.960Z,99.90
2018-07-19T20:13:18.376Z,99.90
2018-07-19T20:15:46.750Z,99.90
2018-07-19T20:18:15.003Z,99.90
2018-07-19T20:20:43.326Z,99.90
2018-07-19T20:23:11.693Z,99.90
2018-07-19T20:25:39.965Z,99.90
2018-07-19T20:28:08.265Z,99.90
2018-07-19T20:35:32.737Z,99.90
2018-07-19T20:38:01.042Z,99.90
2018-07-19T20:40:29.278Z,99.90
2018-07-19T20:42:57.570Z,99.90
2018-07-19T20:45:25.970Z,99.90
2018-07-19T20:47:54.213Z,99.90
2018-07-19T20:50:22.534Z,99.90
2018-07-19T20:55:19.249Z,99.90
2018-07-19T20:57:47.610Z,99.90
2018-07-19T21:02:44.021Z,99.90
2018-07-19T21:05:12.310Z,99.90
2018-07-19T21:07:40.557Z,99.90
2018-07-19T21:10:09.008Z,99.90
2018-07-19T21:12:37.389Z,99.90
2018-07-19T21:17:34.056Z,99.90
2018-07-19T21:20:02.321Z,99.90
2018-07-19T21:22:30.650Z,99.90
2018-07-19T21:24:58.907Z,99.90
2018-07-19T21:27:27.202Z,99.90
2018-07-19T21:29:55.478Z,99.90
2018-07-19T21:32:23.764Z,99.90
2018-07-19T21:34:52.082Z,99.90
2018-07-19T21:37:20.390Z,99.90
2018-07-19T21:39:48.677Z,99.90
2018-07-19T21:42:16.934Z,99.90
2018-07-19T21:44:45.225Z,99.90
2018-07-19T21:47:13.591Z,99.90
2018-07-19T21:49:42.608Z,99.90
2018-07-19T21:52:10.925Z,99.90
2018-07-19T21:54:39.182Z,99.90
2018-07-19T21:57:07.445Z,99.90
2018-07-19T21:59:35.774Z,99.90
2018-07-19T22:02:04.053Z,99.90
2018-07-19T22:04:32.380Z,99.90
2018-07-19T22:07:00.634Z,99.90
2018-07-19T22:11:56.958Z,99.90
2018-07-19T22:14:25.482Z,99.90
2018-07-19T22:16:53.951Z,99.90
2018-07-19T22:19:22.252Z,99.90
2018-07-19T22:21:50.522Z,99.90
2018-07-19T22:24:18.785Z,99.90
2018-07-19T22:26:47.121Z,99.90
2018-07-19T22:29:15.444Z,99.90
2018-07-19T22:31:43.799Z,99.90
2018-07-19T22:34:12.101Z,99.90
2018-07-19T22:36:40.348Z,99.90
2018-07-19T22:39:10.239Z,99.90
2018-07-19T22:41:38.618Z,99.90
2018-07-19T22:44:06.858Z,99.90
2018-07-19T22:51:31.329Z,99.90
2018-07-19T22:53:59.730Z,99.90
2018-07-19T22:56:28.030Z,99.90
2018-07-19T22:58:56.694Z,99.90
2018-07-19T23:01:24.969Z,99.90
2018-07-19T23:03:53.275Z,99.90
2018-07-19T23:08:49.761Z,99.90
2018-07-19T23:11:18.362Z,99.90
2018-07-19T23:13:46.807Z,99.90
2018-07-19T23:16:15.904Z,99.90
2018-07-19T23:18:44.490Z,99.90
2018-07-19T23:21:12.895Z,99.90
2018-07-19T23:23:41.167Z,99.90
2018-07-19T23:26:09.530Z,99.90
2018-07-19T23:28:37.766Z,99.90
2018-07-19T23:31:06.082Z,99.90
2018-07-19T23:33:34.321Z,99.90
2018-07-19T23:38:49.651Z,99.90
2018-07-19T23:41:26.242Z,99.90
2018-07-19T23:43:58.590Z,99.90
2018-07-19T23:46:30.678Z,99.90
2018-07-19T23:49:03.141Z,99.90
2018-07-19T23:51:31.502Z,99.90
2018-07-19T23:53:59.750Z,99.90
2018-07-19T23:56:30.046Z,99.90
2018-07-19T23:58:58.343Z,99.90
